Time;durP1;ratioP1;P1;durP2;ratioP2;P2;SDS_P1;SDS_P2;PMS_P1;PMS_P2;Temp;Humidity;BMP_temperature;BMP_pressure;BME280_temperature;BME280_humidity;BME280_pressure;Samples;Min_cycle;Max_cycle;Signal;HPM_P1;HPM_P2
2023/03/10 00:00:43;;;;;;;1.02;0.45;;;11.60;1.00;;;;;;5050474;28;20392;-72
2023/03/10 00:03:09;;;;;;;2.20;0.90;;;11.50;1.00;;;;;;5050663;28;20398;-71
2023/03/10 00:05:36;;;;;;;1.90;0.80;;;11.40;1.00;;;;;;5050378;28;20876;-73
2023/03/10 00:08:01;;;;;;;2.50;0.90;;;11.20;16.10;;;;;;5050408;28;20741;-75
2023/03/10 00:10:27;;;;;;;1.00;0.80;;;11.10;22.60;;;;;;5050362;28;20385;-75
2023/03/10 00:12:53;;;;;;;3.38;1.00;;;11.00;53.90;;;;;;5050025;28;20403;-74
2023/03/10 00:15:18;;;;;;;2.40;0.93;;;11.00;97.70;;;;;;5050217;28;20737;-74
2023/03/10 00:17:44;;;;;;;2.10;1.13;;;10.90;99.90;;;;;;5050121;28;20403;-75
2023/03/10 00:20:11;;;;;;;1.70;1.10;;;10.90;99.90;;;;;;5050154;28;20863;-74
2023/03/10 00:22:38;;;;;;;5.53;1.30;;;10.90;91.60;;;;;;5050002;28;20405;-74
2023/03/10 00:25:05;;;;;;;2.00;0.80;;;10.90;99.90;;;;;;5049835;28;20439;-74
2023/03/10 00:27:30;;;;;;;0.88;0.68;;;10.90;71.60;;;;;;5049239;28;20926;-74
2023/03/10 00:29:56;;;;;;;1.40;0.80;;;11.00;31.50;;;;;;5050208;28;20386;-74
2023/03/10 00:32:21;;;;;;;0.90;0.50;;;11.10;1.00;;;;;;5032147;28;20377;-74
2023/03/10 00:34:47;;;;;;;2.20;0.70;;;11.20;1.00;;;;;;5050005;28;20385;-74
2023/03/10 00:37:12;;;;;;;0.70;0.70;;;11.30;1.00;;;;;;5049566;28;20388;-74
2023/03/10 00:39:38;;;;;;;1.30;0.50;;;11.40;1.00;;;;;;5049519;28;20397;-74
2023/03/10 00:42:03;;;;;;;1.50;0.60;;;11.40;1.00;;;;;;5049628;28;21028;-74
2023/03/10 00:44:29;;;;;;;2.50;0.77;;;11.60;1.00;;;;;;5049876;28;20397;-73
2023/03/10 00:46:54;;;;;;;1.00;0.60;;;11.70;1.00;;;;;;5049559;28;20412;-74
2023/03/10 00:49:20;;;;;;;1.00;0.80;;;11.70;1.00;;;;;;5049749;28;20385;-73
2023/03/10 00:51:46;;;;;;;1.50;0.70;;;11.60;1.00;;;;;;5049908;28;20385;-73
2023/03/10 00:54:11;;;;;;;1.15;0.60;;;11.40;1.00;;;;;;5049880;28;20473;-71
2023/03/10 00:56:37;;;;;;;1.58;0.70;;;11.30;1.00;;;;;;5048821;28;20405;-71
2023/03/10 00:59:03;;;;;;;1.17;0.70;;;11.10;99.90;;;;;;5049166;28;20401;-71
2023/03/10 01:01:31;;;;;;;1.50;0.80;;;11.00;99.90;;;;;;5049855;28;20754;-70
2023/03/10 01:04:00;;;;;;;3.70;1.00;;;10.80;99.90;;;;;;5049758;28;20477;-71
2023/03/10 01:06:26;;;;;;;0.93;0.50;;;10.80;99.90;;;;;;5049280;28;20393;-71
2023/03/10 01:08:52;;;;;;;0.50;0.45;;;10.80;99.90;;;;;;5049630;28;20377;-70
2023/03/10 01:11:21;;;;;;;0.60;0.50;;;10.80;99.90;;;;;;5049608;28;20385;-70
2023/03/10 01:13:47;;;;;;;1.17;0.60;;;10.70;99.90;;;;;;5049464;28;20401;-72
2023/03/10 01:16:12;;;;;;;0.80;0.60;;;10.60;99.90;;;;;;5049002;28;20895;-72
2023/03/10 01:18:38;;;;;;;0.82;0.40;;;10.60;99.90;;;;;;5049441;28;20389;-72
2023/03/10 01:21:05;;;;;;;1.40;0.50;;;10.50;99.90;;;;;;5049509;28;20393;-71
2023/03/10 01:23:31;;;;;;;1.30;0.50;;;10.50;99.90;;;;;;5049578;28;20405;-73
2023/03/10 01:25:57;;;;;;;0.80;0.40;;;10.50;99.90;;;;;;5049286;28;20418;-71
2023/03/10 01:28:23;;;;;;;0.70;0.40;;;10.50;99.90;;;;;;5049410;28;20420;-71
2023/03/10 01:30:48;;;;;;;0.70;0.50;;;10.70;99.90;;;;;;5049576;28;20386;-72
2023/03/10 01:33:16;;;;;;;1.60;0.40;;;10.60;99.90;;;;;;5049270;28;20398;-72
2023/03/10 01:35:42;;;;;;;1.20;0.40;;;10.70;99.90;;;;;;5048507;28;20403;-73
2023/03/10 01:38:08;;;;;;;1.80;0.50;;;10.70;99.90;;;;;;5048257;28;20410;-73
2023/03/10 01:40:37;;;;;;;1.55;0.50;;;10.90;99.90;;;;;;5052955;28;20864;-74
2023/03/10 01:43:25;;;;;;;1.40;0.60;;;10.90;99.90;;;;;;5053034;28;20408;-73
2023/03/10 01:45:50;;;;;;;0.80;0.60;;;11.00;99.90;;;;;;5052681;28;20381;-73
2023/03/10 01:48:16;;;;;;;0.80;0.63;;;11.10;99.90;;;;;;5052564;28;20481;-76
2023/03/10 01:50:45;;;;;;;1.80;0.90;;;11.10;99.90;;;;;;5052900;28;20433;-77
2023/03/10 01:53:13;;;;;;;1.60;0.80;;;11.20;99.90;;;;;;5052993;28;20394;-74
2023/03/10 01:55:46;;;;;;;1.90;0.80;;;11.20;99.90;;;;;;5034588;28;20755;-75
2023/03/10 01:58:12;;;;;;;1.60;0.70;;;11.30;99.90;;;;;;5037954;28;20913;-75
2023/03/10 02:00:40;;;;;;;1.87;0.70;;;11.30;99.90;;;;;;5037844;28;20405;-75
2023/03/10 02:03:20;;;;;;;1.70;0.70;;;11.30;99.90;;;;;;5034454;28;20783;-75
2023/03/10 02:05:52;;;;;;;2.15;0.77;;;11.20;99.90;;;;;;5052466;28;20378;-75
2023/03/10 02:08:19;;;;;;;1.00;0.73;;;11.30;99.90;;;;;;5052567;28;20424;-75
2023/03/10 02:10:45;;;;;;;1.70;0.60;;;11.30;99.90;;;;;;5034506;28;20397;-77
2023/03/10 02:13:10;;;;;;;1.80;0.75;;;11.20;99.90;;;;;;5052375;28;20389;-76
2023/03/10 02:15:36;;;;;;;3.30;1.00;;;11.30;99.90;;;;;;5052187;28;20385;-75
2023/03/10 02:18:05;;;;;;;1.35;0.70;;;11.30;99.90;;;;;;5052164;28;20496;-75
2023/03/10 02:21:04;;;;;;;1.40;0.80;;;11.30;99.90;;;;;;5052262;28;20818;-76
2023/03/10 02:23:47;;;;;;;1.35;0.63;;;11.30;99.90;;;;;;5052012;28;20406;-75
2023/03/10 02:26:32;;;;;;;1.83;0.80;;;11.30;99.90;;;;;;5052055;28;20478;-76
2023/03/10 02:29:02;;;;;;;1.00;0.70;;;11.30;99.90;;;;;;5052115;28;20476;-75
2023/03/10 02:31:29;;;;;;;2.50;0.80;;;11.40;99.90;;;;;;5052167;28;20388;-75
2023/03/10 02:33:56;;;;;;;1.20;0.65;;;11.30;99.90;;;;;;5034085;28;20725;-76
2023/03/10 02:36:22;;;;;;;1.98;0.90;;;11.40;99.90;;;;;;5051435;28;20447;-76
2023/03/10 02:38:49;;;;;;;2.10;1.00;;;11.40;99.90;;;;;;5051563;28;20451;-75
2023/03/10 02:41:27;;;;;;;3.03;0.90;;;11.50;77.50;;;;;;5034131;28;20408;-75
2023/03/10 02:43:54;;;;;;;2.10;1.23;;;11.50;45.00;;;;;;5052008;28;20411;-75
2023/03/10 02:46:21;;;;;;;1.60;0.80;;;11.50;24.80;;;;;;5051534;28;20381;-74
2023/03/10 02:48:46;;;;;;;2.50;0.90;;;11.60;12.30;;;;;;5051432;28;20391;-76
2023/03/10 02:51:17;;;;;;;1.57;0.80;;;11.50;1.00;;;;;;5050909;28;20401;-74
2023/03/10 02:53:42;;;;;;;1.60;0.80;;;11.60;1.00;;;;;;5034092;28;20735;-75
2023/03/10 02:56:08;;;;;;;1.60;0.70;;;11.60;1.00;;;;;;5051447;28;20390;-74
2023/03/10 02:58:34;;;;;;;1.52;0.70;;;11.60;1.00;;;;;;5033688;28;20398;-75
2023/03/10 03:01:00;;;;;;;1.70;0.80;;;11.60;1.00;;;;;;5013764;28;20753;-75
2023/03/10 03:03:25;;;;;;;1.50;0.60;;;11.70;1.00;;;;;;5031641;28;20395;-75
2023/03/10 03:05:51;;;;;;;1.73;0.73;;;11.70;1.00;;;;;;5048360;28;20424;-75
2023/03/10 03:08:17;;;;;;;2.20;0.70;;;11.70;1.00;;;;;;5050960;28;20396;-74
2023/03/10 03:10:44;;;;;;;1.17;0.80;;;11.70;1.00;;;;;;5051494;28;20788;-74
2023/03/10 03:13:10;;;;;;;2.00;0.80;;;11.70;1.00;;;;;;5033591;28;20385;-74
2023/03/10 03:15:36;;;;;;;1.70;0.60;;;11.70;1.00;;;;;;5033057;28;20396;-74
2023/03/10 03:18:02;;;;;;;3.05;0.60;;;11.70;1.00;;;;;;5051398;28;20389;-74
2023/03/10 03:20:29;;;;;;;1.40;0.70;;;11.70;1.00;;;;;;5051112;28;20397;-74
2023/03/10 03:22:55;;;;;;;2.70;0.70;;;11.70;1.00;;;;;;5051299;28;20401;-74
2023/03/10 03:25:22;;;;;;;2.10;0.80;;;11.70;1.00;;;;;;5033307;28;20765;-75
2023/03/10 03:27:49;;;;;;;1.50;0.90;;;11.70;1.00;;;;;;5051324;28;20801;-75
2023/03/10 03:30:21;;;;;;;3.63;0.90;;;11.60;1.00;;;;;;5051252;28;20515;-75
2023/03/10 03:32:46;;;;;;;3.20;0.80;;;11.60;1.00;;;;;;5051326;28;20396;-74
2023/03/10 03:35:24;;;;;;;5.28;1.00;;;11.70;1.00;;;;;;5051140;28;20907;-74
2023/03/10 03:37:51;;;;;;;2.20;0.80;;;11.60;1.00;;;;;;5050384;28;20750;-74
2023/03/10 03:40:17;;;;;;;1.00;0.80;;;11.70;1.00;;;;;;5034442;28;20476;-75
2023/03/10 03:42:44;;;;;;;1.10;0.60;;;11.70;1.00;;;;;;5050527;28;21025;-74
2023/03/10 03:45:12;;;;;;;2.60;0.90;;;11.70;99.90;;;;;;5050804;28;20425;-75
2023/03/10 03:47:38;;;;;;;1.20;0.50;;;11.70;99.90;;;;;;5050497;28;20385;-74
2023/03/10 03:50:04;;;;;;;3.50;0.70;;;11.70;99.90;;;;;;5050515;28;20472;-74
2023/03/10 03:52:31;;;;;;;2.70;0.60;;;11.70;99.90;;;;;;5033047;28;20793;-75
2023/03/10 03:54:56;;;;;;;0.87;0.70;;;11.80;1.00;;;;;;5032694;28;20948;-75
2023/03/10 03:57:22;;;;;;;1.50;0.60;;;11.70;47.20;;;;;;5049559;28;20397;-75
2023/03/10 03:59:48;;;;;;;0.80;0.50;;;11.70;1.00;;;;;;5050300;28;20975;-74
2023/03/10 04:02:13;;;;;;;2.50;0.70;;;11.80;17.10;;;;;;5049963;28;20390;-75
2023/03/10 04:04:39;;;;;;;0.70;0.50;;;11.90;1.00;;;;;;5050404;28;20405;-75
2023/03/10 04:07:04;;;;;;;1.10;0.60;;;12.00;1.00;;;;;;5049970;28;20390;-75
2023/03/10 04:09:30;;;;;;;2.07;0.60;;;12.10;99.90;;;;;;5050322;28;20870;-75
2023/03/10 04:11:55;;;;;;;2.00;0.60;;;12.10;1.00;;;;;;5050285;28;20396;-74
2023/03/10 04:14:21;;;;;;;1.80;0.50;;;12.10;1.00;;;;;;5050337;28;20456;-74
2023/03/10 04:16:46;;;;;;;1.50;0.70;;;12.20;99.90;;;;;;5050067;28;20481;-74
2023/03/10 04:19:12;;;;;;;1.33;0.50;;;12.20;51.50;;;;;;5050101;28;20384;-75
2023/03/10 04:21:38;;;;;;;1.60;0.60;;;12.20;99.90;;;;;;5049968;28;20428;-75
2023/03/10 04:24:04;;;;;;;2.05;0.70;;;12.10;99.90;;;;;;5050243;28;20783;-73
2023/03/10 04:26:30;;;;;;;1.23;0.60;;;11.80;1.00;;;;;;5031809;28;20682;-72
2023/03/10 04:28:57;;;;;;;2.33;0.93;;;11.20;99.90;;;;;;5050334;28;20398;-74
2023/03/10 04:31:22;;;;;;;1.10;0.60;;;10.90;99.90;;;;;;5050289;28;20415;-72
2023/03/10 04:33:48;;;;;;;1.50;0.60;;;10.80;99.90;;;;;;5050558;28;20468;-71
2023/03/10 04:36:14;;;;;;;2.00;0.50;;;10.50;99.90;;;;;;5049661;28;20434;-72
2023/03/10 04:38:40;;;;;;;1.08;0.60;;;10.40;99.90;;;;;;5050330;28;20389;-73
2023/03/10 04:41:05;;;;;;;1.88;0.80;;;10.40;99.90;;;;;;5050442;28;20411;-74
2023/03/10 04:43:31;;;;;;;2.70;0.70;;;10.30;99.90;;;;;;5050443;28;20389;-74
2023/03/10 04:45:57;;;;;;;1.50;0.70;;;10.20;99.90;;;;;;5050204;28;20386;-74
2023/03/10 04:48:23;;;;;;;1.20;0.70;;;10.20;99.90;;;;;;5050533;28;20400;-74
2023/03/10 04:51:04;;;;;;;1.73;0.50;;;10.30;99.90;;;;;;5050140;28;20398;-74
2023/03/10 04:53:31;;;;;;;2.40;0.68;;;10.20;99.90;;;;;;5050289;28;20404;-74
2023/03/10 04:55:57;;;;;;;2.13;0.77;;;10.10;99.90;;;;;;5050091;28;20791;-73
2023/03/10 04:58:23;;;;;;;0.93;0.60;;;10.40;99.90;;;;;;5050190;28;20386;-73
2023/03/10 05:00:48;;;;;;;0.60;0.50;;;10.50;99.90;;;;;;5050179;28;20458;-74
2023/03/10 05:03:14;;;;;;;0.87;0.60;;;10.60;99.90;;;;;;5049989;28;20966;-74
2023/03/10 05:05:40;;;;;;;1.90;0.40;;;10.50;99.90;;;;;;5049805;28;20605;-74
2023/03/10 05:08:06;;;;;;;2.60;0.70;;;10.70;59.50;;;;;;5050153;28;20382;-74
2023/03/10 05:10:32;;;;;;;2.05;0.55;;;10.90;1.00;;;;;;5049875;28;20425;-74
2023/03/10 05:12:57;;;;;;;0.80;0.50;;;11.00;1.00;;;;;;5051433;28;20476;-75
2023/03/10 05:15:23;;;;;;;0.40;0.40;;;11.10;1.00;;;;;;5053917;28;20408;-74
2023/03/10 05:17:49;;;;;;;0.50;0.40;;;11.30;1.00;;;;;;5053955;28;20393;-74
2023/03/10 05:20:15;;;;;;;1.00;0.50;;;11.40;1.00;;;;;;5053903;28;20464;-75
2023/03/10 05:22:41;;;;;;;1.02;0.50;;;11.40;1.00;;;;;;5053788;28;20906;-74
2023/03/10 05:25:09;;;;;;;1.50;0.50;;;11.60;1.00;;;;;;5054123;28;20397;-74
2023/03/10 05:27:35;;;;;;;2.10;0.50;;;11.70;99.90;;;;;;5053101;28;20555;-73
2023/03/10 05:30:03;;;;;;;1.30;0.40;;;11.80;99.90;;;;;;5052180;28;20475;-73
2023/03/10 05:32:29;;;;;;;1.80;0.50;;;11.80;1.00;;;;;;5033839;28;20407;-72
2023/03/10 05:34:54;;;;;;;1.03;0.67;;;11.80;1.00;;;;;;5049847;28;20887;-72
2023/03/10 05:37:20;;;;;;;0.80;0.40;;;11.70;49.50;;;;;;5053212;28;20389;-71
2023/03/10 05:39:45;;;;;;;2.60;0.50;;;11.70;1.00;;;;;;5053355;28;20390;-72
2023/03/10 05:42:11;;;;;;;1.48;0.47;;;11.60;1.00;;;;;;5051482;28;20389;-71
2023/03/10 05:44:38;;;;;;;0.95;0.40;;;11.70;99.90;;;;;;5047087;28;20397;-72
2023/03/10 05:47:04;;;;;;;0.93;0.50;;;11.60;1.00;;;;;;5052876;28;20480;-71
2023/03/10 05:49:30;;;;;;;1.80;0.60;;;11.70;2.40;;;;;;5053161;28;20440;-72
2023/03/10 05:51:56;;;;;;;1.30;0.50;;;11.70;1.00;;;;;;5053389;28;20398;-71
2023/03/10 05:54:22;;;;;;;0.80;0.40;;;11.70;99.90;;;;;;5053353;28;20401;-72
2023/03/10 05:56:47;;;;;;;0.77;0.40;;;11.70;91.10;;;;;;5049726;28;20944;-72
2023/03/10 05:59:13;;;;;;;1.03;0.40;;;11.70;49.00;;;;;;5037404;28;20405;-71
2023/03/10 06:01:39;;;;;;;0.60;0.40;;;11.70;1.00;;;;;;5053701;28;20434;-72
2023/03/10 06:04:04;;;;;;;0.70;0.40;;;11.70;1.00;;;;;;5052953;28;20401;-72
2023/03/10 06:06:30;;;;;;;1.40;0.50;;;11.60;99.90;;;;;;5053203;28;20902;-72
2023/03/10 06:08:56;;;;;;;0.70;0.32;;;11.60;21.70;;;;;;5053262;28;20866;-72
2023/03/10 06:11:22;;;;;;;1.30;0.50;;;11.60;1.00;;;;;;5053040;28;20735;-72
2023/03/10 06:13:47;;;;;;;2.20;0.50;;;11.70;1.00;;;;;;5053026;28;20392;-72
2023/03/10 06:16:13;;;;;;;0.60;0.50;;;11.70;99.90;;;;;;5052675;28;20435;-72
2023/03/10 06:18:38;;;;;;;1.10;0.50;;;11.80;99.90;;;;;;5052822;28;20397;-72
2023/03/10 06:21:09;;;;;;;3.30;0.40;;;11.80;99.90;;;;;;5052556;28;20378;-73
2023/03/10 06:23:35;;;;;;;1.40;0.60;;;11.90;99.90;;;;;;5034843;28;20401;-74
2023/03/10 06:26:13;;;;;;;2.00;0.50;;;11.90;1.00;;;;;;5051964;28;20890;-74
2023/03/10 06:28:41;;;;;;;3.20;0.70;;;12.20;98.50;;;;;;5052708;28;20966;-74
2023/03/10 06:31:12;;;;;;;1.83;0.70;;;12.10;97.10;;;;;;5052699;28;20465;-73
2023/03/10 06:33:38;;;;;;;0.60;0.60;;;12.20;34.80;;;;;;5046737;28;20887;-74
2023/03/10 06:36:05;;;;;;;1.60;0.50;;;12.20;1.00;;;;;;5030635;28;20473;-75
2023/03/10 06:38:30;;;;;;;1.67;0.60;;;11.90;1.00;;;;;;5052179;28;20408;-74
2023/03/10 06:40:57;;;;;;;2.00;0.65;;;11.10;1.00;;;;;;5051901;28;20398;-74
2023/03/10 06:43:22;;;;;;;2.30;0.80;;;10.40;98.70;;;;;;5052344;28;20397;-73
2023/03/10 06:45:48;;;;;;;1.30;0.55;;;10.10;99.90;;;;;;5052082;28;20431;-74
2023/03/10 06:48:15;;;;;;;2.20;0.80;;;10.00;99.90;;;;;;5052231;28;20390;-73
2023/03/10 06:50:46;;;;;;;0.60;0.40;;;9.80;99.90;;;;;;5052205;28;20401;-74
2023/03/10 06:53:13;;;;;;;2.70;0.60;;;9.60;99.90;;;;;;5034247;28;20780;-68
2023/03/10 06:55:39;;;;;;;2.40;0.60;;;9.50;99.90;;;;;;5051622;28;20473;-69
2023/03/10 06:58:04;;;;;;;1.70;0.60;;;9.50;99.90;;;;;;5038248;28;20478;-70
2023/03/10 07:00:30;;;;;;;1.70;0.63;;;9.30;99.90;;;;;;5032109;28;20502;-72
2023/03/10 07:02:56;;;;;;;1.50;0.60;;;9.20;99.90;;;;;;5032114;28;20399;-70
2023/03/10 07:05:23;;;;;;;0.60;0.40;;;9.20;99.90;;;;;;5031870;28;20391;-72
2023/03/10 07:07:52;;;;;;;1.10;0.45;;;9.20;99.90;;;;;;5019500;28;20389;-73
2023/03/10 07:10:18;;;;;;;0.77;0.40;;;9.10;99.90;;;;;;5051773;28;20508;-68
2023/03/10 07:12:44;;;;;;;1.30;0.50;;;9.20;99.90;;;;;;5051954;28;20819;-68
2023/03/10 07:15:10;;;;;;;1.30;0.50;;;9.10;99.90;;;;;;5051730;28;20386;-68
2023/03/10 07:17:36;;;;;;;0.90;0.40;;;9.30;99.90;;;;;;5051392;28;20507;-67
2023/03/10 07:20:03;;;;;;;0.40;0.30;;;9.30;99.90;;;;;;5051654;28;20456;-68
2023/03/10 07:22:29;;;;;;;0.98;0.40;;;9.40;99.90;;;;;;5033119;28;20416;-68
2023/03/10 07:24:55;;;;;;;1.50;0.35;;;9.40;99.90;;;;;;5051684;28;20482;-68
2023/03/10 07:27:21;;;;;;;1.00;0.50;;;9.50;99.90;;;;;;5051157;28;20377;-67
2023/03/10 07:29:46;;;;;;;1.00;0.50;;;9.60;99.90;;;;;;5051377;28;20748;-68
2023/03/10 07:32:12;;;;;;;1.13;0.40;;;9.60;99.90;;;;;;5051195;28;20385;-68
2023/03/10 07:34:37;;;;;;;3.00;0.80;;;9.70;99.90;;;;;;5051222;28;20822;-68
2023/03/10 07:37:03;;;;;;;2.30;0.70;;;9.70;99.90;;;;;;5050277;28;20392;-69
2023/03/10 07:39:29;;;;;;;1.75;0.60;;;9.80;99.90;;;;;;5045600;28;20395;-69
2023/03/10 07:41:54;;;;;;;2.47;0.80;;;9.90;40.60;;;;;;5047260;28;20967;-70
2023/03/10 07:44:20;;;;;;;1.80;1.10;;;9.90;35.00;;;;;;5050283;28;20454;-70
2023/03/10 07:46:45;;;;;;;4.57;1.05;;;9.90;99.50;;;;;;5049815;28;20405;-71
2023/03/10 07:49:11;;;;;;;3.43;0.90;;;9.90;1.00;;;;;;5032742;28;20386;-69
2023/03/10 07:51:36;;;;;;;2.40;1.10;;;10.00;1.00;;;;;;5051085;28;20382;-69
2023/03/10 07:54:03;;;;;;;3.27;1.00;;;10.00;1.00;;;;;;5051118;28;20779;-69
2023/03/10 07:56:28;;;;;;;3.37;1.17;;;10.00;42.70;;;;;;5049949;28;20863;-69
2023/03/10 07:58:54;;;;;;;3.40;1.47;;;10.10;1.00;;;;;;5031012;28;20425;-69
2023/03/10 08:01:20;;;;;;;4.33;1.07;;;10.10;89.10;;;;;;5050302;28;20401;-68
2023/03/10 08:03:46;;;;;;;1.05;0.80;;;10.10;41.90;;;;;;5050873;28;20881;-68
2023/03/10 08:06:23;;;;;;;5.43;1.30;;;10.10;62.10;;;;;;5050640;28;20424;-68
2023/03/10 08:08:50;;;;;;;2.50;0.60;;;10.10;1.00;;;;;;5050209;28;20385;-68
2023/03/10 08:11:15;;;;;;;6.90;1.08;;;10.20;1.00;;;;;;5042152;28;20468;-73
2023/03/10 08:13:41;;;;;;;2.63;0.80;;;10.20;1.00;;;;;;5049851;28;20535;-75
2023/03/10 08:16:07;;;;;;;4.20;1.10;;;10.20;37.10;;;;;;5042285;28;20971;-77
2023/03/10 08:18:33;;;;;;;3.35;0.90;;;10.20;99.90;;;;;;5050779;28;20393;-73
2023/03/10 08:21:03;;;;;;;5.95;1.30;;;10.10;10.60;;;;;;5050288;28;20454;-75
2023/03/10 08:23:28;;;;;;;3.45;0.80;;;10.10;59.30;;;;;;5050815;28;20480;-78
2023/03/10 08:25:54;;;;;;;4.90;1.60;;;10.10;84.00;;;;;;5032518;28;20385;-73
2023/03/10 08:28:20;;;;;;;4.25;1.50;;;10.10;36.50;;;;;;5050083;28;20467;-73
2023/03/10 08:30:45;;;;;;;2.95;2.25;;;10.00;83.70;;;;;;5050736;28;20389;-74
2023/03/10 08:33:11;;;;;;;5.60;2.67;;;9.90;99.90;;;;;;5050525;28;20409;-75
2023/03/10 08:35:37;;;;;;;3.47;1.50;;;9.70;99.90;;;;;;5032328;28;21006;-74
2023/03/10 08:38:04;;;;;;;6.10;1.60;;;9.80;99.90;;;;;;5050463;28;20396;-74
2023/03/10 08:40:30;;;;;;;3.35;1.75;;;9.80;99.90;;;;;;5049969;28;20770;-74
2023/03/10 08:42:55;;;;;;;6.18;1.80;;;9.90;99.90;;;;;;5050134;28;20432;-75
2023/03/10 08:45:21;;;;;;;6.70;2.20;;;9.90;99.90;;;;;;5050317;28;20504;-75
2023/03/10 08:47:47;;;;;;;4.43;1.50;;;9.90;79.20;;;;;;5052837;28;20380;-74
2023/03/10 08:50:12;;;;;;;5.53;1.77;;;9.90;41.20;;;;;;5057041;28;20401;-74
2023/03/10 08:52:38;;;;;;;6.10;1.63;;;9.90;1.00;;;;;;5038685;28;20409;-75
2023/03/10 08:55:05;;;;;;;5.43;2.40;;;9.90;45.00;;;;;;5056946;28;20458;-75
2023/03/10 08:57:31;;;;;;;4.28;1.80;;;10.00;1.00;;;;;;5056359;28;20949;-74
2023/03/10 08:59:56;;;;;;;4.60;1.30;;;10.10;1.00;;;;;;5056748;28;20480;-75
2023/03/10 09:02:22;;;;;;;4.70;1.50;;;10.10;1.00;;;;;;5056907;28;20407;-75
2023/03/10 09:04:49;;;;;;;5.10;1.60;;;10.20;1.00;;;;;;5056703;28;20405;-74
2023/03/10 09:07:15;;;;;;;4.90;2.00;;;10.20;1.00;;;;;;5055506;28;20404;-73
2023/03/10 09:09:41;;;;;;;7.90;2.53;;;10.30;1.00;;;;;;5056344;28;20389;-74
2023/03/10 09:12:08;;;;;;;6.15;2.40;;;10.30;1.00;;;;;;5056370;28;20377;-74
2023/03/10 09:14:34;;;;;;;3.38;1.60;;;10.40;1.00;;;;;;5038869;28;20401;-73
2023/03/10 09:17:00;;;;;;;3.83;1.90;;;10.40;99.90;;;;;;5056774;28;20385;-74
2023/03/10 09:19:25;;;;;;;3.20;1.60;;;10.50;99.90;;;;;;5056410;28;20434;-73
2023/03/10 09:21:51;;;;;;;3.47;1.20;;;10.50;99.90;;;;;;5039264;28;20400;-73
2023/03/10 09:24:18;;;;;;;4.40;1.48;;;10.50;1.00;;;;;;5058033;28;20393;-73
2023/03/10 09:26:43;;;;;;;4.05;1.10;;;10.50;99.90;;;;;;5057239;28;20385;-73
2023/03/10 09:29:09;;;;;;;2.10;1.00;;;10.50;99.90;;;;;;5056695;28;20925;-72
2023/03/10 09:31:36;;;;;;;2.60;1.20;;;10.50;99.90;;;;;;5056508;28;20973;-74
2023/03/10 09:34:02;;;;;;;2.08;1.00;;;10.50;99.90;;;;;;5056380;28;20492;-74
2023/03/10 09:36:28;;;;;;;5.07;1.20;;;10.50;99.90;;;;;;5056232;28;20481;-74
2023/03/10 09:38:55;;;;;;;2.67;1.00;;;10.60;99.90;;;;;;5038454;28;20393;-74
2023/03/10 09:41:42;;;;;;;2.10;0.88;;;10.60;99.90;;;;;;5056160;28;20382;-74
2023/03/10 09:44:26;;;;;;;5.32;1.45;;;10.60;99.90;;;;;;5056091;28;20878;-74
2023/03/10 09:47:33;;;;;;;3.58;1.10;;;10.60;99.90;;;;;;5038215;28;20397;-75
2023/03/10 09:50:18;;;;;;;5.72;1.50;;;10.70;99.90;;;;;;5056310;28;20397;-74
2023/03/10 09:53:18;;;;;;;2.47;1.17;;;10.60;99.90;;;;;;5056215;28;20390;-74
2023/03/10 09:55:44;;;;;;;2.78;1.27;;;10.60;99.90;;;;;;5035523;28;20388;-74
2023/03/10 09:58:32;;;;;;;2.92;0.80;;;10.60;99.90;;;;;;5050844;28;20739;-74
2023/03/10 10:00:59;;;;;;;3.53;0.80;;;10.60;99.90;;;;;;5052429;28;20389;-73
2023/03/10 10:03:35;;;;;;;1.70;1.00;;;10.60;99.90;;;;;;5052968;28;20402;-74
2023/03/10 10:06:03;;;;;;;2.17;1.20;;;10.60;1.00;;;;;;5052744;28;20416;-73
2023/03/10 10:08:44;;;;;;;2.80;1.20;;;10.60;99.80;;;;;;5050268;28;20397;-74
2023/03/10 10:11:15;;;;;;;2.30;1.20;;;10.50;99.90;;;;;;5049810;28;20397;-74
2023/03/10 10:13:41;;;;;;;3.15;1.20;;;10.50;99.90;;;;;;5042249;28;20395;-74
2023/03/10 10:16:30;;;;;;;2.50;1.30;;;10.40;99.90;;;;;;5050391;28;20875;-74
2023/03/10 10:19:07;;;;;;;1.95;0.82;;;10.30;99.90;;;;;;5052922;28;21038;-74
2023/03/10 10:21:55;;;;;;;2.13;0.70;;;10.40;99.90;;;;;;5052871;28;20409;-74
2023/03/10 10:24:21;;;;;;;5.10;0.70;;;10.40;99.90;;;;;;5052153;28;20409;-74
2023/03/10 10:26:46;;;;;;;1.48;0.77;;;10.40;99.90;;;;;;5046646;28;20387;-74
2023/03/10 10:29:14;;;;;;;3.10;0.55;;;10.30;99.90;;;;;;5050032;28;20879;-73
2023/03/10 10:31:40;;;;;;;2.40;0.80;;;10.30;99.90;;;;;;5046881;28;20378;-73
2023/03/10 10:34:21;;;;;;;3.25;1.00;;;10.60;99.90;;;;;;5052265;28;20393;-73
2023/03/10 10:36:50;;;;;;;2.00;0.80;;;10.20;99.90;;;;;;5052352;28;20879;-74
2023/03/10 10:39:25;;;;;;;0.85;0.50;;;10.10;99.90;;;;;;5052462;28;20409;-74
2023/03/10 10:41:51;;;;;;;1.50;0.50;;;10.20;99.90;;;;;;5052833;28;20500;-74
2023/03/10 10:44:18;;;;;;;1.00;0.50;;;10.20;99.90;;;;;;5052273;28;20397;-76
2023/03/10 10:46:55;;;;;;;1.80;0.73;;;10.10;1.00;;;;;;5052117;28;20411;-74
2023/03/10 10:49:26;;;;;;;1.60;0.50;;;10.10;1.00;;;;;;5033731;28;20485;-74
2023/03/10 10:51:58;;;;;;;1.88;0.47;;;10.00;1.00;;;;;;5051939;28;20756;-73
2023/03/10 10:54:31;;;;;;;1.80;0.60;;;10.10;1.00;;;;;;5052002;28;20390;-73
2023/03/10 10:56:59;;;;;;;1.00;0.60;;;10.10;1.00;;;;;;5029475;28;20478;-73
2023/03/10 10:59:34;;;;;;;1.00;0.40;;;10.10;1.00;;;;;;5032046;28;20391;-73
2023/03/10 11:02:03;;;;;;;2.00;0.50;;;10.10;1.00;;;;;;5032166;28;20383;-74
2023/03/10 11:04:41;;;;;;;1.10;0.40;;;10.10;1.00;;;;;;5031952;28;20453;-73
2023/03/10 11:07:14;;;;;;;1.25;0.70;;;10.10;1.00;;;;;;5049423;28;20428;-73
2023/03/10 11:09:39;;;;;;;1.00;0.50;;;10.00;1.00;;;;;;5051627;28;20420;-73
2023/03/10 11:12:21;;;;;;;1.20;0.40;;;10.10;1.00;;;;;;5051791;28;20416;-74
2023/03/10 11:14:57;;;;;;;0.90;0.40;;;10.10;1.00;;;;;;5034039;28;20859;-73
2023/03/10 11:17:53;;;;;;;1.20;0.50;;;10.00;1.00;;;;;;5050990;28;20397;-73
2023/03/10 11:20:25;;;;;;;0.80;0.40;;;10.00;1.00;;;;;;5046108;28;20412;-73
2023/03/10 11:23:17;;;;;;;1.60;0.60;;;10.00;1.00;;;;;;5047730;28;20411;-73
2023/03/10 11:26:30;;;;;;;1.90;0.60;;;10.00;1.00;;;;;;5052860;28;20957;-73
2023/03/10 11:29:28;;;;;;;1.42;0.50;;;10.00;1.00;;;;;;4958116;28;20906;-73
2023/03/10 11:32:18;;;;;;;0.50;0.43;;;10.00;1.00;;;;;;5051654;28;20847;-73
2023/03/10 11:34:49;;;;;;;0.65;0.40;;;10.00;1.00;;;;;;5051412;28;20771;-73
2023/03/10 11:37:43;;;;;;;1.40;0.50;;;10.10;1.00;;;;;;5051121;28;20469;-73
2023/03/10 11:40:18;;;;;;;0.60;0.40;;;10.10;1.00;;;;;;5051196;28;20443;-73
2023/03/10 11:43:01;;;;;;;1.60;0.40;;;10.00;1.00;;;;;;5033206;28;20424;-73
2023/03/10 11:45:36;;;;;;;1.23;0.40;;;10.00;1.00;;;;;;5051202;28;20755;-73
2023/03/10 11:48:08;;;;;;;1.30;0.30;;;10.00;1.00;;;;;;5033023;28;20401;-73
2023/03/10 11:50:53;;;;;;;0.93;0.50;;;10.00;1.00;;;;;;5051269;28;20381;-73
2023/03/10 11:53:37;;;;;;;1.10;0.40;;;9.90;1.00;;;;;;5033366;28;20772;-73
2023/03/10 11:56:04;;;;;;;0.80;0.50;;;9.90;1.00;;;;;;5050814;28;20381;-74
2023/03/10 11:58:52;;;;;;;0.50;0.32;;;9.90;1.00;;;;;;5050715;28;20405;-72
2023/03/10 12:02:06;;;;;;;0.63;0.40;;;9.60;99.90;;;;;;5032957;28;20764;-71
2023/03/10 12:04:46;;;;;;;0.80;0.40;;;9.30;99.90;;;;;;5037697;28;20416;-71
2023/03/10 12:07:18;;;;;;;1.00;0.47;;;9.20;99.90;;;;;;5032510;28;20398;-72
2023/03/10 12:10:17;;;;;;;1.13;0.40;;;9.20;99.90;;;;;;5050686;28;20754;-72
2023/03/10 12:12:45;;;;;;;0.60;0.60;;;9.20;99.90;;;;;;5017195;28;20394;-72
2023/03/10 12:15:29;;;;;;;0.70;0.40;;;9.20;99.90;;;;;;5030574;28;20387;-72
2023/03/10 12:17:55;;;;;;;1.00;0.40;;;9.20;99.90;;;;;;5030915;28;20394;-73
2023/03/10 12:20:21;;;;;;;0.57;0.30;;;9.30;99.90;;;;;;5030705;28;20489;-73
2023/03/10 12:23:17;;;;;;;1.20;0.40;;;9.30;99.90;;;;;;5049115;28;20993;-74
2023/03/10 12:25:44;;;;;;;1.60;0.40;;;9.30;99.90;;;;;;5028855;28;20758;-73
2023/03/10 12:28:10;;;;;;;0.60;0.30;;;9.40;99.90;;;;;;5050228;28;20424;-72
2023/03/10 12:31:10;;;;;;;0.40;0.30;;;9.40;99.90;;;;;;5050061;28;20425;-74
2023/03/10 12:33:38;;;;;;;0.77;0.50;;;9.30;99.90;;;;;;5050432;28;20428;-73
2023/03/10 12:36:30;;;;;;;0.75;0.40;;;9.30;99.90;;;;;;5050259;28;20740;-73
2023/03/10 12:39:17;;;;;;;0.68;0.30;;;9.40;99.90;;;;;;5032520;28;20396;-73
2023/03/10 12:41:59;;;;;;;1.20;0.50;;;9.50;99.90;;;;;;5050349;28;20435;-73
2023/03/10 12:44:47;;;;;;;0.40;0.30;;;9.50;99.90;;;;;;5049772;28;20818;-73
2023/03/10 12:47:17;;;;;;;0.70;0.40;;;9.50;99.90;;;;;;5050103;28;20370;-73
2023/03/10 12:49:49;;;;;;;0.63;0.35;;;9.70;99.90;;;;;;5050104;28;20385;-73
2023/03/10 12:52:39;;;;;;;0.50;0.40;;;9.70;99.90;;;;;;5050397;28;20756;-72
2023/03/10 12:55:13;;;;;;;0.60;0.30;;;9.70;99.90;;;;;;5050195;28;20381;-73
2023/03/10 12:58:02;;;;;;;0.50;0.50;;;9.90;99.90;;;;;;5028331;28;20741;-73
2023/03/10 13:01:01;;;;;;;0.60;0.40;;;10.00;99.90;;;;;;5050173;28;20377;-73
2023/03/10 13:03:40;;;;;;;0.60;0.40;;;9.80;99.90;;;;;;5028566;28;20895;-74
2023/03/10 13:06:12;;;;;;;0.82;0.40;;;9.80;99.90;;;;;;5049889;28;20382;-73